Nearby METAR Reports

 

EGMC - Southend-On-Sea, United Kingdom
Distance from station: NE 10km
Updated: 26/04/2018 05:50
Clear
Clear
 Wind from SW
Wind: SW 15 mph , 24 km/h
Temperature: 7°C
Wind Chill: 3°C
Dew Point: 4°C
Humidity: 81%
Barometer: 1014 hPa
Summary: Clear
Visibility: greater than 7 miles , 10 km
2018/04/26 04:50 EGMC 260450Z 23013KT CAVOK 07/04 Q1014
EGLC - London City Airp, United Kingdom
Distance from station: W 37km
Updated: 26/04/2018 05:50
Clear
Clear
 Wind from WSW
Wind: WSW 15 mph , 24 km/h
Temperature: 8°C
Wind Chill: 4°C
Dew Point: 5°C
Humidity: 82%
Barometer: 1015 hPa
Clouds: Clear
Visibility: 6 miles , 10 km
2018/04/26 04:50 EGLC 260450Z AUTO 24013KT 9999 NCD 08/05 Q1015
EGKB - Biggin Hill, United Kingdom
Distance from station: WSW 45km
Updated: 25/04/2018 22:20
NOT Current
Few Clouds
Few Clouds
 Wind from WSW
Wind: WSW 9 mph , 15 km/h
Temperature: 8°C
Wind Chill: 5°C
Dew Point: 4°C
Humidity: 76%
Barometer: 1013 hPa
Clouds: Few Clouds
Visibility: 6 miles , 10 km
Cloud details: Few Clouds 457 m
2018/04/25 21:20 EGKB 252120Z 25008KT 220V290 9999 FEW015 08/04 Q1013
 
EGSS - Stansted Airport, United Kingdom
Distance from station: NNW 48km
Updated: 26/04/2018 05:50
Clear
Clear
 Wind from WSW
Wind: WSW 7 mph , 11 km/h
Temperature: 4°C
Wind Chill: 1°C
Dew Point: 3°C
Humidity: 93%
Barometer: 1014 hPa
Clouds: Clear
Visibility: 6 miles , 10 km
2018/04/26 04:50 EGSS 260450Z AUTO 24006KT 9999 NCD 04/03 Q1014
EGKK - London/Gatwick A, United Kingdom
Distance from station: SW 67km
Updated: 26/04/2018 05:50
Clear
Clear
 Wind from SW
Wind: SW 9 mph , 15 km/h
Temperature: 6°C
Wind Chill: 3°C
Dew Point: 4°C
Humidity: 87%
Barometer: 1016 hPa
Summary: Clear
Visibility: greater than 7 miles , 10 km
2018/04/26 04:50 EGKK 260450Z 23008KT CAVOK 06/04 Q1016
EGMD - Lydd Airport, United Kingdom
Distance from station: SSE 67km
Updated: 26/04/2018 05:50
Clear
Clear
 Wind from WSW
Wind: WSW 16 mph , 26 km/h
Temperature: 8°C
Wind Chill: 4°C
Dew Point: 5°C
Humidity: 82%
Barometer: 1016 hPa
Clouds: Clear
Visibility: 6 miles , 10 km
2018/04/26 04:50 EGMD 260450Z AUTO 25014KT 9999 NCD 08/05 Q1016
 
EGWU - Northolt Raf, United Kingdom
Distance from station: W 69km
Updated: 26/04/2018 05:50
Clear
Clear
 Wind from WSW
Wind: WSW 7 mph , 11 km/h
Temperature: 6°C
Wind Chill: 4°C
Dew Point: 5°C
Humidity: 93%
Barometer: 1015 hPa
Clouds: Clear
Visibility: 6 miles , 10 km
2018/04/26 04:50 EGWU 260450Z AUTO 24006KT 9999 // NCD 06/05 Q1015
EGLL - London/Heathrow, United Kingdom
Distance from station: W 72km
Updated: 26/04/2018 05:50
Clear
Clear
 Wind from WSW
Wind: WSW 10 mph , 17 km/h
Temperature: 6°C
Wind Chill: 3°C
Dew Point: 5°C
Humidity: 93%
Barometer: 1015 hPa
Clouds: Clear
Visibility: 6 miles , 10 km
2018/04/26 04:50 EGLL 260450Z AUTO 24009KT 9999 NCD 06/05 Q1015 NOSIG
EGUW - Wattisham Raf, United Kingdom
Distance from station: NNE 72km
Updated: 26/04/2018 05:50
Clear
Clear
 Wind from WSW
Wind: WSW 12 mph , 19 km/h
Temperature: 5°C
Wind Chill: 1°C
Dew Point: 4°C
Humidity: 93%
Barometer: 1013 hPa
Clouds: Clear
Visibility: 6 miles , 10 km
2018/04/26 04:50 EGUW 260450Z AUTO 25010KT 9999 NCD 05/04 Q1013
 
EGGW - Luton Airport, United Kingdom
Distance from station: WNW 76km
Updated: 26/04/2018 05:50
Clear
Clear
 Wind from WSW
Wind: WSW 16 mph , 26 km/h
Temperature: 6°C
Wind Chill: 2°C
Dew Point: 4°C
Humidity: 87%
Barometer: 1014 hPa
Clouds: Clear
Visibility: 6 miles , 10 km
2018/04/26 04:50 EGGW 260450Z AUTO 25014KT 9999 NCD 06/04 Q1014
EGSC - Cambridge, United Kingdom
Distance from station: NNW 81km
Updated: 25/04/2018 17:50
NOT Current
Few Clouds
Few Clouds
 Wind from WSW
Wind: WSW 12 mph , 19 km/h, Gust: 24 mph , 39 km/h
Temperature: 9°C
Wind Chill: 6°C
Dew Point: 7°C
Humidity: 87%
Barometer: 1010 hPa
Clouds: Few Clouds
Visibility: 6 miles , 10 km
Cloud details: Few Clouds 914 m
2018/04/25 16:50 EGSC 251650Z 25010G21KT 9999 FEW030 09/07 Q1010 RESHRA